Time;durP1;ratioP1;P1;durP2;ratioP2;P2;SDS_P1;SDS_P2;PMS_P1;PMS_P2;Temp;Humidity;BMP_temperature;BMP_pressure;BME280_temperature;BME280_humidity;BME280_pressure;Samples;Min_cycle;Max_cycle;Signal;HPM_P1;HPM_P2
2023/08/23 00:01:51;;;;;;;7.10;5.13;;;22.20;99.90;;;;;;5032536;28;20116;-52
2023/08/23 00:04:19;;;;;;;7.95;5.10;;;22.20;99.90;;;;;;5033295;28;20029;-51
2023/08/23 00:06:44;;;;;;;7.10;5.07;;;22.10;99.90;;;;;;5033508;28;20404;-53
2023/08/23 00:09:10;;;;;;;5.90;4.85;;;22.10;99.90;;;;;;5033279;28;20018;-52
2023/08/23 00:11:36;;;;;;;8.30;5.97;;;22.10;99.90;;;;;;5033222;28;20078;-49
2023/08/23 00:14:02;;;;;;;12.68;5.78;;;22.00;99.90;;;;;;5033270;28;20020;-49
2023/08/23 00:16:28;;;;;;;7.95;5.55;;;22.00;99.90;;;;;;5033200;28;20404;-51
2023/08/23 00:18:53;;;;;;;10.68;5.35;;;22.00;99.90;;;;;;5033044;28;20032;-48
2023/08/23 00:21:19;;;;;;;10.48;5.50;;;22.00;99.90;;;;;;5033181;28;20029;-50
2023/08/23 00:23:44;;;;;;;10.57;5.13;;;22.00;99.90;;;;;;5033230;28;20036;-52
2023/08/23 00:26:13;;;;;;;13.25;5.30;;;22.00;99.90;;;;;;5032988;28;20021;-54
2023/08/23 00:28:39;;;;;;;11.85;5.32;;;22.00;99.90;;;;;;5050881;28;20017;-50
2023/08/23 00:31:04;;;;;;;6.13;5.35;;;22.00;99.90;;;;;;5016583;28;20017;-48
2023/08/23 00:33:30;;;;;;;10.18;5.18;;;21.90;99.90;;;;;;5033113;28;20495;-49
2023/08/23 00:35:56;;;;;;;9.75;5.82;;;21.90;99.90;;;;;;5033239;28;20115;-49
2023/08/23 00:38:21;;;;;;;8.07;5.35;;;21.90;99.90;;;;;;5033183;28;20120;-51
2023/08/23 00:40:47;;;;;;;6.00;4.70;;;21.90;99.90;;;;;;5032751;28;20507;-49
2023/08/23 00:43:12;;;;;;;7.63;4.47;;;21.90;99.90;;;;;;5050863;28;20033;-49
2023/08/23 00:45:40;;;;;;;6.13;4.80;;;21.90;99.90;;;;;;5033024;28;20017;-49
2023/08/23 00:48:06;;;;;;;6.15;5.45;;;22.00;99.90;;;;;;5033049;28;20021;-52
2023/08/23 00:50:32;;;;;;;10.85;5.50;;;22.00;99.90;;;;;;5032650;28;20021;-51
2023/08/23 00:52:58;;;;;;;11.13;5.40;;;22.00;99.90;;;;;;5033083;28;20075;-51
2023/08/23 00:55:24;;;;;;;7.05;5.85;;;21.90;99.90;;;;;;5032916;28;20103;-50
2023/08/23 00:57:50;;;;;;;7.32;5.78;;;21.90;99.90;;;;;;5033124;28;20495;-50
2023/08/23 01:00:16;;;;;;;5.88;5.28;;;21.90;99.90;;;;;;5032725;28;20083;-52
2023/08/23 01:02:42;;;;;;;6.50;5.80;;;21.90;99.90;;;;;;5050740;28;20033;-50
2023/08/23 01:05:08;;;;;;;8.90;5.57;;;21.90;99.90;;;;;;5032781;28;20036;-49
2023/08/23 01:07:46;;;;;;;7.45;4.97;;;21.90;99.90;;;;;;5032810;28;20026;-51
2023/08/23 01:10:44;;;;;;;8.77;5.28;;;21.80;99.90;;;;;;5032556;28;20056;-55
2023/08/23 01:13:45;;;;;;;8.52;5.65;;;21.80;99.90;;;;;;5034757;28;20028;-52
2023/08/23 01:16:12;;;;;;;12.82;5.57;;;21.70;99.90;;;;;;4982543;28;20037;-49
2023/08/23 01:18:39;;;;;;;7.45;5.55;;;21.70;99.90;;;;;;5036077;28;20029;-52
2023/08/23 01:21:08;;;;;;;12.10;4.85;;;21.70;99.90;;;;;;5036111;28;20507;-50
2023/08/23 01:23:35;;;;;;;9.13;4.95;;;21.60;99.90;;;;;;5036147;28;20037;-50
2023/08/23 01:26:01;;;;;;;6.88;4.95;;;21.50;99.90;;;;;;5036029;28;20112;-50
2023/08/23 01:28:26;;;;;;;11.93;5.32;;;21.50;99.90;;;;;;5036047;28;20021;-53
2023/08/23 01:30:55;;;;;;;9.43;6.40;;;21.50;99.90;;;;;;5036038;28;20027;-52
2023/08/23 01:33:58;;;;;;;14.13;6.15;;;21.40;99.90;;;;;;5036373;28;20395;-52
2023/08/23 01:36:27;;;;;;;10.65;6.70;;;21.50;99.90;;;;;;5020194;28;20048;-51
2023/08/23 01:38:54;;;;;;;10.13;5.65;;;21.50;99.90;;;;;;5035704;28;20114;-50
2023/08/23 01:41:21;;;;;;;12.70;6.57;;;21.50;99.90;;;;;;5036035;28;20017;-47
2023/08/23 01:43:47;;;;;;;7.10;5.22;;;21.50;99.90;;;;;;5035629;28;20029;-48
2023/08/23 01:46:12;;;;;;;8.30;5.45;;;21.60;99.90;;;;;;5035726;28;20400;-48
2023/08/23 01:48:38;;;;;;;9.18;5.50;;;21.60;99.90;;;;;;5035644;28;20028;-48
2023/08/23 01:51:04;;;;;;;11.07;6.13;;;21.60;99.90;;;;;;5035466;28;20479;-50
2023/08/23 01:53:29;;;;;;;9.73;5.55;;;21.60;99.90;;;;;;5035534;28;20489;-47
2023/08/23 01:55:55;;;;;;;10.07;5.57;;;21.60;99.90;;;;;;5035593;28;20025;-49
2023/08/23 01:58:20;;;;;;;10.77;5.30;;;21.60;99.90;;;;;;5035509;28;20508;-48
2023/08/23 02:00:47;;;;;;;6.43;5.22;;;21.60;99.90;;;;;;5035142;28;20048;-52
2023/08/23 02:03:13;;;;;;;8.25;6.07;;;21.50;99.90;;;;;;5035446;28;20025;-48
2023/08/23 02:05:38;;;;;;;6.60;5.63;;;21.50;99.90;;;;;;5035368;28;20029;-50
2023/08/23 02:08:04;;;;;;;9.75;6.32;;;21.50;99.90;;;;;;5035400;28;20436;-51
2023/08/23 02:10:29;;;;;;;12.15;5.93;;;21.40;99.90;;;;;;5035009;28;20028;-50
2023/08/23 02:12:55;;;;;;;14.50;7.22;;;21.40;99.90;;;;;;5035346;28;20029;-49
2023/08/23 02:15:20;;;;;;;9.15;5.82;;;21.40;99.90;;;;;;5035120;28;20017;-49
2023/08/23 02:17:46;;;;;;;7.03;5.93;;;21.30;99.90;;;;;;5035353;28;20516;-47
2023/08/23 02:20:12;;;;;;;7.40;5.82;;;21.20;99.90;;;;;;5034827;28;20095;-48
2023/08/23 02:22:37;;;;;;;10.70;7.38;;;21.10;99.90;;;;;;5035005;28;20121;-48
2023/08/23 02:25:03;;;;;;;10.40;7.15;;;20.90;99.90;;;;;;5034273;28;20024;-51
2023/08/23 02:27:28;;;;;;;14.00;8.43;;;20.80;99.90;;;;;;5035191;28;20031;-48
2023/08/23 02:29:54;;;;;;;10.73;7.38;;;20.70;99.90;;;;;;5035009;28;20025;-48
2023/08/23 02:32:19;;;;;;;13.77;7.45;;;20.50;99.90;;;;;;5035086;28;20025;-49
2023/08/23 02:34:45;;;;;;;11.38;8.10;;;20.50;99.90;;;;;;5035330;28;20028;-48
2023/08/23 02:37:11;;;;;;;8.10;6.78;;;20.40;99.90;;;;;;5036000;28;20025;-50
2023/08/23 02:39:36;;;;;;;11.07;7.13;;;20.50;99.90;;;;;;5035971;28;20029;-49
2023/08/23 02:42:02;;;;;;;9.55;6.55;;;20.50;99.90;;;;;;5034972;28;20400;-52
2023/08/23 02:44:27;;;;;;;9.98;7.82;;;20.50;99.90;;;;;;5034487;28;20032;-51
2023/08/23 02:46:53;;;;;;;9.52;7.47;;;20.50;99.90;;;;;;5018225;28;20081;-50
2023/08/23 02:49:18;;;;;;;11.65;7.68;;;20.50;99.90;;;;;;5052082;28;20017;-48
2023/08/23 02:51:44;;;;;;;8.63;7.75;;;20.40;99.90;;;;;;5034463;28;20025;-49
2023/08/23 02:54:10;;;;;;;16.85;8.32;;;20.40;99.90;;;;;;5034511;28;20037;-48
2023/08/23 02:56:35;;;;;;;9.68;7.43;;;20.40;99.90;;;;;;5052289;28;20024;-49
2023/08/23 02:59:01;;;;;;;8.50;7.70;;;20.40;99.90;;;;;;5034214;28;20028;-50
2023/08/23 03:01:26;;;;;;;10.13;7.07;;;20.40;99.90;;;;;;5034218;28;20535;-51
2023/08/23 03:03:52;;;;;;;9.77;7.40;;;20.40;99.90;;;;;;5034106;28;20025;-51
2023/08/23 03:06:17;;;;;;;13.23;6.50;;;20.50;99.90;;;;;;5034326;28;20485;-49
2023/08/23 03:08:43;;;;;;;8.75;6.90;;;20.50;99.90;;;;;;5034121;28;20441;-51
2023/08/23 03:11:08;;;;;;;9.30;6.75;;;20.60;99.90;;;;;;5051815;28;20494;-51
2023/08/23 03:13:34;;;;;;;10.57;6.53;;;20.60;99.90;;;;;;5034116;28;20032;-48
2023/08/23 03:16:00;;;;;;;8.65;6.80;;;20.60;99.90;;;;;;5034113;28;20395;-54
2023/08/23 03:18:26;;;;;;;9.02;6.45;;;20.60;99.90;;;;;;5033930;28;20025;-48
2023/08/23 03:20:52;;;;;;;10.80;6.30;;;20.70;99.90;;;;;;5051438;28;20040;-51
2023/08/23 03:23:18;;;;;;;12.52;6.53;;;20.60;99.90;;;;;;5034037;28;20029;-51
2023/08/23 03:25:45;;;;;;;6.47;5.88;;;20.60;99.90;;;;;;5033802;28;20388;-49
2023/08/23 03:28:11;;;;;;;7.78;6.10;;;20.60;99.90;;;;;;5033907;28;20044;-48
2023/08/23 03:30:37;;;;;;;8.57;6.15;;;20.50;99.90;;;;;;5033306;28;20400;-48
2023/08/23 03:33:02;;;;;;;11.65;6.47;;;20.50;99.90;;;;;;5033947;28;20017;-51
2023/08/23 03:35:28;;;;;;;12.73;7.38;;;20.50;99.90;;;;;;5033260;28;20128;-48
2023/08/23 03:37:54;;;;;;;9.30;7.38;;;20.50;99.90;;;;;;5033291;28;20063;-49
2023/08/23 03:40:19;;;;;;;10.20;7.13;;;20.50;99.90;;;;;;5033424;28;20040;-50
2023/08/23 03:42:45;;;;;;;11.38;6.72;;;20.40;99.90;;;;;;5033656;28;20028;-51
2023/08/23 03:45:11;;;;;;;7.30;6.57;;;20.40;99.90;;;;;;5033541;28;20396;-50
2023/08/23 03:47:36;;;;;;;9.05;6.95;;;20.30;99.90;;;;;;5051468;28;20037;-49
2023/08/23 03:50:03;;;;;;;8.20;7.10;;;20.30;99.90;;;;;;5033229;28;20538;-52
2023/08/23 03:52:29;;;;;;;8.27;7.47;;;20.20;99.90;;;;;;5033566;28;20021;-49
2023/08/23 03:54:54;;;;;;;13.18;7.75;;;20.20;99.90;;;;;;5033596;28;20115;-52
2023/08/23 03:57:20;;;;;;;7.90;6.38;;;20.20;99.90;;;;;;5051357;28;20151;-52
2023/08/23 03:59:45;;;;;;;14.07;6.90;;;20.10;99.90;;;;;;5033079;28;20036;-49
2023/08/23 04:02:11;;;;;;;12.30;7.40;;;20.10;99.90;;;;;;5051375;28;20464;-48
2023/08/23 04:04:36;;;;;;;12.85;7.80;;;20.10;99.90;;;;;;5033335;28;20036;-51
2023/08/23 04:07:02;;;;;;;8.77;7.68;;;20.10;99.90;;;;;;5033492;28;20017;-49
2023/08/23 04:09:28;;;;;;;9.70;6.82;;;20.10;99.90;;;;;;5033261;28;20029;-50
2023/08/23 04:11:53;;;;;;;10.15;7.00;;;20.10;99.90;;;;;;5033101;28;20508;-51
2023/08/23 04:14:19;;;;;;;7.35;6.72;;;20.10;99.90;;;;;;5033231;28;20033;-50
2023/08/23 04:16:44;;;;;;;12.40;8.13;;;20.10;99.90;;;;;;5033374;28;20435;-50
2023/08/23 04:19:10;;;;;;;7.53;6.40;;;20.10;99.90;;;;;;5033703;28;20400;-50
2023/08/23 04:21:35;;;;;;;9.35;6.93;;;20.10;99.90;;;;;;5033146;28;20031;-52
2023/08/23 04:24:01;;;;;;;8.82;7.93;;;20.10;99.90;;;;;;5033207;28;20059;-51
2023/08/23 04:26:26;;;;;;;8.32;7.30;;;20.10;99.90;;;;;;5032960;28;20377;-51
2023/08/23 04:28:53;;;;;;;13.35;7.93;;;20.10;99.90;;;;;;5033079;28;20025;-52
2023/08/23 04:31:19;;;;;;;8.52;7.43;;;20.00;99.90;;;;;;5032836;28;20404;-49
2023/08/23 04:33:44;;;;;;;8.10;7.35;;;19.90;99.90;;;;;;5033212;28;20021;-50
2023/08/23 04:36:10;;;;;;;11.50;7.68;;;19.80;99.90;;;;;;5051014;28;20021;-48
2023/08/23 04:38:36;;;;;;;11.10;8.20;;;19.80;99.90;;;;;;5051171;28;20024;-52
2023/08/23 04:41:03;;;;;;;16.35;8.68;;;19.70;99.90;;;;;;5032610;28;20028;-53
2023/08/23 04:43:28;;;;;;;8.60;7.65;;;19.80;99.90;;;;;;5033194;28;20043;-48
2023/08/23 04:45:55;;;;;;;13.30;8.00;;;19.90;99.90;;;;;;5051001;28;20100;-53
2023/08/23 04:48:23;;;;;;;14.10;7.90;;;19.90;99.90;;;;;;5035217;28;20025;-53
2023/08/23 04:50:52;;;;;;;12.90;8.02;;;19.90;99.90;;;;;;5036526;28;20021;-51
2023/08/23 04:53:18;;;;;;;8.18;7.38;;;20.00;99.90;;;;;;5054565;28;20032;-52
2023/08/23 04:55:44;;;;;;;12.75;9.15;;;20.00;99.90;;;;;;5036505;28;20040;-52
2023/08/23 04:58:09;;;;;;;10.68;8.73;;;20.10;99.90;;;;;;5036516;28;20392;-52
2023/08/23 05:00:35;;;;;;;8.82;6.88;;;20.10;99.90;;;;;;5036451;28;20032;-50
2023/08/23 05:03:01;;;;;;;11.02;7.32;;;20.10;99.90;;;;;;5036629;28;20122;-51
2023/08/23 05:05:27;;;;;;;10.98;8.05;;;20.20;99.90;;;;;;5036364;28;20032;-52
2023/08/23 05:07:52;;;;;;;8.40;7.05;;;20.30;99.90;;;;;;5036290;28;20031;-48
2023/08/23 05:10:18;;;;;;;9.60;6.82;;;20.40;99.90;;;;;;5035988;28;20488;-51
2023/08/23 05:12:44;;;;;;;9.02;6.68;;;20.40;99.90;;;;;;5036343;28;20441;-50
2023/08/23 05:15:10;;;;;;;8.50;6.78;;;20.60;99.90;;;;;;5036211;28;20083;-49
2023/08/23 05:17:35;;;;;;;9.95;6.82;;;20.70;99.90;;;;;;5036224;28;20427;-49
2023/08/23 05:20:01;;;;;;;10.05;7.13;;;20.90;99.90;;;;;;5035688;28;20079;-49
2023/08/23 05:22:26;;;;;;;8.30;7.50;;;21.10;99.90;;;;;;5036203;28;20029;-48
2023/08/23 05:24:52;;;;;;;18.92;7.45;;;21.40;99.90;;;;;;5053659;28;20039;-49
2023/08/23 05:27:17;;;;;;;11.65;7.53;;;21.50;99.90;;;;;;5036010;28;20028;-49
2023/08/23 05:29:44;;;;;;;11.48;7.93;;;21.70;99.90;;;;;;5019204;28;20017;-48
2023/08/23 05:32:10;;;;;;;10.00;7.03;;;21.80;99.90;;;;;;5035914;28;20075;-48
2023/08/23 05:34:35;;;;;;;17.77;8.32;;;22.00;99.90;;;;;;5053702;28;20029;-49
2023/08/23 05:37:01;;;;;;;13.15;7.65;;;22.00;99.90;;;;;;5036161;28;20052;-49
2023/08/23 05:39:26;;;;;;;14.93;8.55;;;22.00;99.90;;;;;;5035612;28;20037;-53
2023/08/23 05:41:52;;;;;;;11.88;7.65;;;21.90;99.90;;;;;;5035686;28;20032;-50
2023/08/23 05:44:18;;;;;;;13.82;8.40;;;21.90;99.90;;;;;;5035578;28;20037;-53
2023/08/23 05:46:43;;;;;;;15.77;8.07;;;21.70;99.90;;;;;;5035992;28;20021;-49
2023/08/23 05:49:09;;;;;;;13.70;8.15;;;21.60;99.90;;;;;;5035664;28;20056;-48
2023/08/23 05:51:34;;;;;;;10.60;7.85;;;21.60;99.90;;;;;;5035467;28;20036;-49
2023/08/23 05:54:00;;;;;;;11.68;7.45;;;21.60;99.90;;;;;;5035760;28;20108;-48
2023/08/23 05:56:25;;;;;;;12.48;8.32;;;21.60;99.90;;;;;;5035566;28;20418;-53
2023/08/23 05:58:51;;;;;;;9.15;7.13;;;21.70;99.90;;;;;;5052244;28;20392;-50
2023/08/23 06:01:16;;;;;;;10.13;7.35;;;21.80;99.90;;;;;;5035160;28;20399;-53
2023/08/23 06:03:42;;;;;;;12.70;7.57;;;21.90;99.90;;;;;;5035336;28;20074;-52
2023/08/23 06:06:08;;;;;;;9.80;6.40;;;22.00;99.90;;;;;;5035438;28;20029;-52
2023/08/23 06:08:34;;;;;;;11.95;5.82;;;22.10;99.90;;;;;;5035361;28;20052;-51
2023/08/23 06:10:59;;;;;;;11.40;7.32;;;22.20;99.90;;;;;;5034980;28;20021;-49
2023/08/23 06:13:25;;;;;;;8.65;6.35;;;22.40;99.90;;;;;;5035203;28;20071;-50
2023/08/23 06:15:50;;;;;;;11.52;7.20;;;22.50;99.90;;;;;;5018726;28;20016;-60
2023/08/23 06:18:16;;;;;;;11.60;7.10;;;22.70;99.90;;;;;;5033546;28;20473;-51
2023/08/23 06:20:43;;;;;;;12.60;7.38;;;22.70;99.90;;;;;;5034301;28;20450;-49
2023/08/23 06:23:08;;;;;;;11.10;6.28;;;22.90;99.90;;;;;;5034898;28;20025;-50
2023/08/23 06:25:34;;;;;;;8.07;5.68;;;23.00;99.90;;;;;;5035398;28;20027;-53
2023/08/23 06:28:00;;;;;;;10.40;6.40;;;23.10;99.90;;;;;;5034980;28;20021;-50
2023/08/23 06:30:25;;;;;;;13.50;6.68;;;23.00;99.90;;;;;;5033865;28;20055;-51
2023/08/23 06:32:51;;;;;;;10.10;5.68;;;23.20;99.90;;;;;;5017838;28;20417;-51
2023/08/23 06:35:18;;;;;;;12.85;5.57;;;23.30;99.90;;;;;;5034759;28;20496;-50
2023/08/23 06:37:44;;;;;;;10.85;6.13;;;23.40;99.90;;;;;;5034297;28;20025;-53
2023/08/23 06:40:11;;;;;;;12.13;6.45;;;23.80;99.90;;;;;;5034128;28;20027;-53
2023/08/23 06:42:38;;;;;;;11.18;4.65;;;24.20;99.90;;;;;;5034137;28;20029;-53
2023/08/23 06:45:04;;;;;;;9.73;6.05;;;24.60;99.90;;;;;;5033839;28;20477;-50
2023/08/23 06:47:30;;;;;;;7.40;6.03;;;24.80;99.90;;;;;;5051499;28;20040;-50
2023/08/23 06:49:55;;;;;;;16.83;6.40;;;25.10;99.90;;;;;;5034328;28;20204;-53
2023/08/23 06:52:21;;;;;;;11.48;5.97;;;25.40;99.90;;;;;;5034608;28;20066;-51
2023/08/23 06:54:46;;;;;;;6.97;4.97;;;26.00;99.90;;;;;;5034380;28;20067;-53
2023/08/23 06:57:12;;;;;;;9.93;5.43;;;25.80;99.90;;;;;;5034395;28;20477;-52
2023/08/23 06:59:38;;;;;;;7.68;5.25;;;26.70;99.90;;;;;;5034173;28;20078;-55
2023/08/23 07:02:03;;;;;;;12.00;5.30;;;26.80;99.90;;;;;;5034075;28;20140;-55
2023/08/23 07:04:29;;;;;;;14.50;5.10;;;27.00;99.90;;;;;;5032091;28;20044;-52
2023/08/23 07:06:54;;;;;;;9.90;5.03;;;27.60;99.90;;;;;;5014208;28;20030;-49
2023/08/23 07:09:20;;;;;;;5.75;4.45;;;28.40;99.90;;;;;;5013942;28;20057;-51
2023/08/23 07:11:46;;;;;;;7.82;4.68;;;28.80;99.90;;;;;;5013642;28;20544;-51
2023/08/23 07:14:11;;;;;;;4.80;4.35;;;29.40;98.70;;;;;;5014327;28;20072;-55
2023/08/23 07:16:37;;;;;;;9.55;4.22;;;29.70;97.80;;;;;;5029082;28;20459;-50
2023/08/23 07:19:03;;;;;;;11.55;4.85;;;;;;;;;;5033812;28;20036;-50
2023/08/23 07:21:30;;;;;;;12.40;4.05;;;30.30;96.30;;;;;;5033814;28;20025;-52
2023/08/23 07:23:56;;;;;;;6.97;3.78;;;30.60;96.60;;;;;;5051752;28;20028;-51
2023/08/23 07:26:21;;;;;;;6.05;3.95;;;30.90;96.60;;;;;;5033987;28;20044;-49
2023/08/23 07:28:47;;;;;;;9.93;4.47;;;31.50;95.60;;;;;;5033519;28;20021;-51
2023/08/23 07:31:13;;;;;;;7.10;2.88;;;31.60;95.00;;;;;;5032835;28;20017;-55
2023/08/23 07:33:38;;;;;;;8.35;3.55;;;32.00;94.70;;;;;;5033898;28;20423;-58
2023/08/23 07:36:07;;;;;;;6.40;3.00;;;32.50;93.80;;;;;;5033796;28;20375;-53
2023/08/23 07:38:33;;;;;;;6.50;3.13;;;32.50;94.00;;;;;;5033650;28;20502;-53
2023/08/23 07:41:01;;;;;;;6.43;3.35;;;32.10;93.30;;;;;;5033299;28;20029;-49
2023/08/23 07:43:27;;;;;;;8.45;3.33;;;31.70;93.80;;;;;;5050826;28;20086;-55
2023/08/23 07:46:00;;;;;;;11.63;2.90;;;32.00;93.70;;;;;;5051439;28;20025;-54
2023/08/23 07:48:27;;;;;;;6.90;3.63;;;32.00;93.40;;;;;;5033734;28;20021;-53
2023/08/23 07:50:56;;;;;;;15.85;4.10;;;31.30;93.80;;;;;;5033516;28;20025;-53
2023/08/23 07:53:22;;;;;;;12.77;3.40;;;31.60;93.80;;;;;;5033799;28;20078;-54
2023/08/23 07:55:48;;;;;;;5.80;3.20;;;31.80;93.50;;;;;;5034001;28;20147;-52
2023/08/23 07:58:14;;;;;;;5.95;2.80;;;32.00;93.50;;;;;;5033117;28;20475;-55
2023/08/23 08:00:40;;;;;;;8.07;2.90;;;32.20;93.10;;;;;;5032749;28;20031;-55
2023/08/23 08:03:06;;;;;;;5.88;3.05;;;31.60;93.60;;;;;;5033673;28;20485;-54
2023/08/23 08:05:34;;;;;;;8.18;3.83;;;32.10;93.20;;;;;;5033449;28;20400;-52
2023/08/23 08:08:00;;;;;;;7.32;3.08;;;32.50;92.70;;;;;;5033916;28;20021;-55
2023/08/23 08:10:26;;;;;;;8.25;3.05;;;32.30;93.10;;;;;;5033484;28;20078;-55
2023/08/23 08:12:52;;;;;;;11.90;3.63;;;32.00;92.90;;;;;;5051555;28;20030;-50
2023/08/23 08:15:17;;;;;;;7.70;2.95;;;32.20;92.90;;;;;;5051414;28;20025;-54
2023/08/23 08:17:43;;;;;;;6.07;3.40;;;32.60;92.70;;;;;;5032736;28;20217;-51
2023/08/23 08:20:09;;;;;;;2.72;2.20;;;32.60;91.80;;;;;;5032996;28;20033;-49
2023/08/23 08:22:39;;;;;;;4.18;2.42;;;32.70;92.50;;;;;;5034610;28;20025;-54
2023/08/23 08:25:05;;;;;;;7.43;3.00;;;33.10;91.50;;;;;;5037413;28;20559;-55
2023/08/23 08:27:31;;;;;;;7.30;2.92;;;33.10;91.30;;;;;;5036830;28;20112;-54
2023/08/23 08:29:56;;;;;;;6.75;2.50;;;32.90;90.90;;;;;;5036944;28;20087;-53
2023/08/23 08:32:22;;;;;;;4.25;2.75;;;33.00;91.00;;;;;;5055538;28;20032;-52
2023/08/23 08:34:47;;;;;;;3.42;2.60;;;33.40;91.00;;;;;;5037455;28;20118;-49
2023/08/23 08:37:15;;;;;;;4.05;2.08;;;34.00;90.50;;;;;;5037594;28;20453;-54
2023/08/23 08:39:40;;;;;;;12.60;2.90;;;34.30;90.20;;;;;;5036996;28;20025;-54
2023/08/23 08:42:08;;;;;;;5.15;2.67;;;;;;;;;;5054885;28;20078;-52
2023/08/23 08:44:34;;;;;;;8.60;2.20;;;34.50;87.90;;;;;;5037018;28;20131;-51
2023/08/23 08:47:00;;;;;;;4.15;2.20;;;35.00;88.20;;;;;;5036939;28;20617;-49
2023/08/23 08:49:26;;;;;;;11.27;2.40;;;35.20;88.20;;;;;;5036464;28;20051;-54
2023/08/23 08:52:01;;;;;;;4.93;1.95;;;35.60;85.90;;;;;;5036699;28;20547;-50
2023/08/23 08:54:29;;;;;;;6.15;2.10;;;35.60;86.70;;;;;;5036952;28;20075;-52
2023/08/23 08:56:55;;;;;;;11.18;2.70;;;34.80;86.40;;;;;;5036687;28;20025;-54
2023/08/23 08:59:21;;;;;;;7.30;2.58;;;33.90;87.70;;;;;;5035451;28;20035;-50
2023/08/23 09:01:49;;;;;;;4.80;1.83;;;33.80;87.70;;;;;;5042980;28;20025;-50
2023/08/23 09:04:15;;;;;;;8.82;2.70;;;34.10;87.30;;;;;;5036963;28;20025;-49
2023/08/23 09:06:42;;;;;;;6.53;2.58;;;34.20;87.10;;;;;;5036697;28;20108;-50
2023/08/23 09:09:08;;;;;;;12.48;2.55;;;33.70;87.10;;;;;;5034654;28;20176;-53
2023/08/23 09:11:34;;;;;;;3.95;2.75;;;33.70;87.90;;;;;;5041694;28;20522;-49
2023/08/23 09:14:20;;;;;;;9.55;2.50;;;33.00;89.30;;;;;;5034625;28;20032;-50
2023/08/23 09:16:49;;;;;;;6.68;3.42;;;32.70;90.20;;;;;;5053503;28;20457;-51
2023/08/23 09:19:14;;;;;;;5.70;2.70;;;32.40;90.10;;;;;;5033971;28;20510;-53
2023/08/23 09:21:44;;;;;;;5.97;2.08;;;32.30;90.50;;;;;;5033272;28;20120;-50
2023/08/23 09:24:10;;;;;;;7.65;2.50;;;32.30;90.50;;;;;;5024910;28;20083;-50
2023/08/23 09:26:36;;;;;;;6.60;2.80;;;32.50;90.00;;;;;;5028973;28;20017;-54
2023/08/23 09:29:03;;;;;;;6.07;2.75;;;32.30;89.60;;;;;;5032435;28;20036;-51
2023/08/23 09:31:28;;;;;;;3.08;2.38;;;32.20;90.00;;;;;;5032600;28;20021;-52
2023/08/23 09:33:54;;;;;;;5.80;2.40;;;31.80;90.60;;;;;;5033051;28;20341;-49
2023/08/23 09:36:28;;;;;;;5.38;2.30;;;31.60;90.80;;;;;;5033603;28;20112;-50
2023/08/23 09:38:55;;;;;;;8.15;2.40;;;31.70;91.20;;;;;;5030321;28;20036;-54
2023/08/23 09:41:22;;;;;;;4.82;2.67;;;31.60;91.80;;;;;;5030727;28;20036;-56
2023/08/23 09:43:52;;;;;;;7.22;2.35;;;31.90;91.40;;;;;;5033328;28;20041;-53
2023/08/23 09:46:23;;;;;;;8.85;2.65;;;32.10;91.50;;;;;;5031761;28;20018;-52
2023/08/23 09:48:51;;;;;;;5.05;2.60;;;31.90;91.50;;;;;;5031070;28;20060;-50
2023/08/23 09:51:18;;;;;;;7.40;2.63;;;32.10;91.70;;;;;;5031174;28;20025;-62
2023/08/23 09:53:48;;;;;;;7.43;2.30;;;32.20;91.20;;;;;;5031349;28;20025;-57
2023/08/23 09:56:14;;;;;;;6.43;2.78;;;32.20;91.30;;;;;;5031456;28;20029;-59
2023/08/23 09:58:40;;;;;;;6.97;2.72;;;32.30;91.80;;;;;;5031353;28;20116;-53
2023/08/23 10:01:06;;;;;;;4.80;2.22;;;32.40;90.80;;;;;;5033737;28;20159;-58
2023/08/23 10:03:31;;;;;;;4.75;2.42;;;32.40;90.50;;;;;;5030519;28;20033;-56
2023/08/23 10:05:57;;;;;;;4.13;2.58;;;32.40;90.70;;;;;;5034302;28;20028;-61
2023/08/23 10:08:23;;;;;;;9.20;2.90;;;31.70;91.20;;;;;;5034202;28;20032;-57
2023/08/23 10:10:53;;;;;;;41.05;28.73;;;31.50;91.70;;;;;;5032780;28;20049;-62
2023/08/23 10:13:20;;;;;;;5.90;2.90;;;31.60;90.90;;;;;;5031147;28;20142;-51
2023/08/23 10:15:47;;;;;;;7.55;2.53;;;31.20;91.40;;;;;;5034246;28;20025;-52
2023/08/23 10:18:14;;;;;;;7.72;3.28;;;31.00;91.40;;;;;;5034005;28;20082;-52
2023/08/23 10:20:41;;;;;;;8.40;3.22;;;30.80;91.70;;;;;;5045663;22;20049;-61
2023/08/23 10:23:16;;;;;;;4.10;2.40;;;30.70;91.90;;;;;;5031334;28;20049;-63
2023/08/23 10:25:44;;;;;;;6.75;2.35;;;30.60;91.20;;;;;;5032033;28;20056;-58
2023/08/23 10:28:13;;;;;;;5.30;2.35;;;30.60;91.80;;;;;;5014551;28;20496;-66
2023/08/23 10:30:48;;;;;;;3.70;2.22;;;30.20;91.90;;;;;;5021656;28;20013;-68
2023/08/23 10:33:15;;;;;;;5.35;2.03;;;29.90;92.10;;;;;;5031881;28;20030;-62
2023/08/23 10:35:42;;;;;;;6.72;2.10;;;29.40;92.70;;;;;;5031848;28;20109;-62
2023/08/23 10:38:09;;;;;;;5.30;2.88;;;29.40;92.80;;;;;;5032181;28;20423;-59
2023/08/23 10:40:36;;;;;;;5.72;3.38;;;29.40;93.40;;;;;;5031259;28;20025;-63
2023/08/23 10:43:13;;;;;;;4.75;2.17;;;29.30;93.20;;;;;;5032351;28;20025;-62
2023/08/23 10:45:56;;;;;;;3.25;2.45;;;29.30;94.00;;;;;;5032044;28;20105;-57
2023/08/23 10:48:23;;;;;;;4.43;2.38;;;29.40;93.60;;;;;;4994516;28;20076;-59
2023/08/23 10:50:50;;;;;;;2.67;2.33;;;29.40;92.90;;;;;;4994519;28;20388;-59
2023/08/23 10:53:16;;;;;;;8.32;3.03;;;29.50;92.70;;;;;;4994483;28;20409;-59
2023/08/23 10:55:42;;;;;;;6.45;2.38;;;29.40;94.20;;;;;;5001785;28;20416;-59
2023/08/23 10:58:08;;;;;;;5.72;2.60;;;29.40;95.00;;;;;;5030387;28;20029;-60
2023/08/23 11:00:33;;;;;;;8.38;3.28;;;29.10;94.30;;;;;;5013519;28;20438;-65
2023/08/23 11:03:00;;;;;;;5.53;3.83;;;28.70;94.90;;;;;;5030440;28;20033;-65
2023/08/23 11:05:26;;;;;;;7.93;3.13;;;28.60;94.70;;;;;;5030999;28;20064;-58
2023/08/23 11:07:52;;;;;;;7.28;2.83;;;28.40;95.10;;;;;;5014862;28;20017;-58
2023/08/23 11:10:18;;;;;;;5.15;3.28;;;28.40;94.50;;;;;;5014603;28;20017;-59
2023/08/23 11:12:44;;;;;;;3.20;2.35;;;28.40;94.70;;;;;;5014603;28;20028;-56
2023/08/23 11:15:09;;;;;;;5.55;2.38;;;28.40;94.20;;;;;;5032089;28;20385;-57
2023/08/23 11:17:36;;;;;;;2.95;2.33;;;28.30;94.60;;;;;;5014443;28;20040;-56
2023/08/23 11:20:03;;;;;;;2.75;2.17;;;28.20;95.30;;;;;;5031669;28;20530;-52
2023/08/23 11:22:28;;;;;;;5.50;2.33;;;28.30;96.30;;;;;;5032142;28;20030;-57
2023/08/23 11:24:56;;;;;;;34.17;19.27;;;28.30;95.50;;;;;;5014301;28;20021;-54
2023/08/23 11:27:22;;;;;;;32.17;23.67;;;28.30;95.50;;;;;;5014439;28;20057;-56
2023/08/23 11:29:48;;;;;;;15.95;12.00;;;28.30;95.70;;;;;;5031655;28;20384;-55
2023/08/23 11:32:13;;;;;;;21.92;4.95;;;28.30;95.50;;;;;;5031952;28;20488;-54
2023/08/23 11:34:39;;;;;;;12.35;3.50;;;28.30;94.80;;;;;;5014176;28;20040;-53
2023/08/23 11:37:08;;;;;;;13.10;3.20;;;28.10;95.70;;;;;;5014286;28;20052;-54
2023/08/23 11:39:34;;;;;;;7.70;2.65;;;28.00;95.90;;;;;;5031715;28;20385;-57
2023/08/23 11:42:00;;;;;;;29.08;5.32;;;28.00;96.20;;;;;;5013889;28;20112;-56
2023/08/23 11:44:27;;;;;;;5.00;2.50;;;27.90;95.60;;;;;;5031426;28;20082;-55
2023/08/23 11:46:55;;;;;;;13.35;3.50;;;28.00;94.80;;;;;;5031573;28;20048;-58
2023/08/23 11:49:22;;;;;;;8.63;3.58;;;28.00;95.30;;;;;;5013694;28;20024;-56
2023/08/23 11:51:49;;;;;;;5.80;2.42;;;27.90;95.80;;;;;;5013674;28;20373;-55
2023/08/23 11:54:16;;;;;;;5.82;2.10;;;28.00;95.90;;;;;;5014048;28;20017;-54
2023/08/23 11:56:43;;;;;;;5.07;2.60;;;28.00;95.20;;;;;;5030448;28;20044;-57
2023/08/23 11:59:09;;;;;;;6.72;2.95;;;27.90;96.00;;;;;;5031068;28;20033;-55
2023/08/23 12:01:36;;;;;;;5.28;2.35;;;28.00;96.10;;;;;;5013416;28;20021;-58
2023/08/23 12:04:02;;;;;;;11.10;2.60;;;27.90;94.60;;;;;;5013747;28;20022;-52
2023/08/23 12:06:28;;;;;;;7.78;3.75;;;28.00;94.70;;;;;;5031366;28;20424;-58
2023/08/23 12:08:54;;;;;;;9.27;2.60;;;27.90;95.90;;;;;;5013017;28;20061;-58
2023/08/23 12:11:20;;;;;;;9.10;2.30;;;27.90;93.60;;;;;;5012736;28;20396;-58
2023/08/23 12:13:46;;;;;;;6.72;3.03;;;27.70;93.70;;;;;;5030943;28;20024;-57
2023/08/23 12:16:11;;;;;;;5.47;2.10;;;27.80;94.00;;;;;;5031355;28;20018;-59
2023/08/23 12:18:37;;;;;;;5.43;1.92;;;27.80;92.60;;;;;;5031031;28;20017;-58
2023/08/23 12:21:04;;;;;;;3.33;1.67;;;27.80;92.00;;;;;;5030400;28;20026;-58
2023/08/23 12:23:30;;;;;;;8.07;2.05;;;27.90;91.60;;;;;;5031014;28;20022;-53
2023/08/23 12:25:56;;;;;;;5.45;1.70;;;27.90;91.10;;;;;;5031317;28;20025;-56
2023/08/23 12:28:21;;;;;;;4.95;2.53;;;28.00;91.10;;;;;;5013554;28;20025;-59
2023/08/23 12:30:47;;;;;;;3.90;1.80;;;28.00;91.80;;;;;;5011956;28;20076;-58
2023/08/23 12:33:13;;;;;;;3.75;1.77;;;28.00;91.40;;;;;;5030972;28;20032;-55
2023/08/23 12:35:38;;;;;;;3.30;1.92;;;28.00;91.10;;;;;;5013316;28;20057;-59
2023/08/23 12:38:04;;;;;;;2.00;1.75;;;28.00;92.20;;;;;;5013337;28;20028;-57
2023/08/23 12:40:29;;;;;;;3.90;1.80;;;28.00;92.90;;;;;;5030411;28;20034;-57